sensor_id;sensor_type;location;lat;lon;timestamp;pressure;altitude;pressure_sealevel;temperature;humidity
52185;BME280;38160;52.876;18.778;2022-09-27T00:02:34;99515.82;;;10.10;86.62
52185;BME280;38160;52.876;18.778;2022-09-27T00:05:46;99512.83;;;10.05;86.51
52185;BME280;38160;52.876;18.778;2022-09-27T00:08:39;99509.53;;;9.99;86.67
52185;BME280;38160;52.876;18.778;2022-09-27T00:11:22;99513.19;;;9.91;86.70
52185;BME280;38160;52.876;18.778;2022-09-27T00:13:57;99512.41;;;9.86;86.70
52185;BME280;38160;52.876;18.778;2022-09-27T00:16:32;99511.63;;;9.82;87.45
52185;BME280;38160;52.876;18.778;2022-09-27T00:19:08;99509.80;;;9.78;87.04
52185;BME280;38160;52.876;18.778;2022-09-27T00:21:47;99499.55;;;9.78;87.17
52185;BME280;38160;52.876;18.778;2022-09-27T00:24:21;99502.94;;;9.76;87.11
52185;BME280;38160;52.876;18.778;2022-09-27T00:26:53;99501.45;;;9.73;87.16
52185;BME280;38160;52.876;18.778;2022-09-27T00:29:25;99497.28;;;9.70;87.20
52185;BME280;38160;52.876;18.778;2022-09-27T00:31:56;99493.59;;;9.67;87.12
52185;BME280;38160;52.876;18.778;2022-09-27T00:34:28;99505.76;;;9.63;86.92
52185;BME280;38160;52.876;18.778;2022-09-27T00:37:00;99502.45;;;9.57;86.72
52185;BME280;38160;52.876;18.778;2022-09-27T00:39:32;99502.84;;;9.54;86.97
52185;BME280;38160;52.876;18.778;2022-09-27T00:42:05;99495.32;;;9.49;86.95
52185;BME280;38160;52.876;18.778;2022-09-27T00:47:32;99496.23;;;9.42;87.35
52185;BME280;38160;52.876;18.778;2022-09-27T00:53:14;99486.70;;;9.35;87.76
52185;BME280;38160;52.876;18.778;2022-09-27T00:56:08;99480.84;;;9.36;88.04
52185;BME280;38160;52.876;18.778;2022-09-27T01:02:09;99478.80;;;9.38;88.15
52185;BME280;38160;52.876;18.778;2022-09-27T01:04:43;99477.77;;;9.39;88.33
52185;BME280;38160;52.876;18.778;2022-09-27T01:07:16;99474.89;;;9.40;88.36
52185;BME280;38160;52.876;18.778;2022-09-27T01:09:47;99465.61;;;9.43;88.69
52185;BME280;38160;52.876;18.778;2022-09-27T01:12:30;99469.60;;;9.47;88.76
52185;BME280;38160;52.876;18.778;2022-09-27T01:15:33;99462.83;;;9.51;88.92
52185;BME280;38160;52.876;18.778;2022-09-27T01:24:07;99447.72;;;9.61;89.23
52185;BME280;38160;52.876;18.778;2022-09-27T01:33:04;99439.54;;;9.69;89.45
52185;BME280;38160;52.876;18.778;2022-09-27T01:45:03;99447.23;;;9.72;89.65
52185;BME280;38160;52.876;18.778;2022-09-27T01:47:43;99434.33;;;9.67;89.73
52185;BME280;38160;52.876;18.778;2022-09-27T01:50:29;99435.55;;;9.65;89.84
52185;BME280;38160;52.876;18.778;2022-09-27T01:53:05;99427.98;;;9.64;90.06
52185;BME280;38160;52.876;18.778;2022-09-27T01:56:00;99431.64;;;9.67;90.27
52185;BME280;38160;52.876;18.778;2022-09-27T01:58:42;99423.55;;;9.67;90.18
52185;BME280;38160;52.876;18.778;2022-09-27T02:01:18;99421.33;;;9.71;90.35
52185;BME280;38160;52.876;18.778;2022-09-27T02:03:52;99419.08;;;9.75;90.50
52185;BME280;38160;52.876;18.778;2022-09-27T02:06:46;99414.86;;;9.76;90.34
52185;BME280;38160;52.876;18.778;2022-09-27T02:09:36;99411.98;;;9.78;90.57
52185;BME280;38160;52.876;18.778;2022-09-27T02:12:26;99405.68;;;9.81;90.67
52185;BME280;38160;52.876;18.778;2022-09-27T02:15:04;99397.76;;;9.84;90.76
52185;BME280;38160;52.876;18.778;2022-09-27T02:17:59;99400.23;;;9.85;90.97
52185;BME280;38160;52.876;18.778;2022-09-27T02:20:38;99399.54;;;9.87;91.29
52185;BME280;38160;52.876;18.778;2022-09-27T02:26:20;99396.22;;;9.96;91.69
52185;BME280;38160;52.876;18.778;2022-09-27T02:29:06;99396.55;;;9.97;91.63
52185;BME280;38160;52.876;18.778;2022-09-27T02:31:43;99395.64;;;10.01;91.77
52185;BME280;38160;52.876;18.778;2022-09-27T02:34:28;99393.41;;;10.04;91.86
52185;BME280;38160;52.876;18.778;2022-09-27T02:37:01;99393.66;;;10.09;91.76
52185;BME280;38160;52.876;18.778;2022-09-27T02:39:33;99398.04;;;10.10;91.54
52185;BME280;38160;52.876;18.778;2022-09-27T02:42:07;99395.86;;;10.10;91.57
52185;BME280;38160;52.876;18.778;2022-09-27T02:44:39;99398.04;;;10.10;91.47
52185;BME280;38160;52.876;18.778;2022-09-27T02:50:20;99395.77;;;10.03;91.62
52185;BME280;38160;52.876;18.778;2022-09-27T02:56:13;99398.48;;;9.93;91.58
52185;BME280;38160;52.876;18.778;2022-09-27T02:59:20;99403.00;;;9.92;91.69
52185;BME280;38160;52.876;18.778;2022-09-27T03:02:10;99399.83;;;9.93;91.59
52185;BME280;38160;52.876;18.778;2022-09-27T03:04:57;99397.61;;;9.92;91.47
52185;BME280;38160;52.876;18.778;2022-09-27T03:07:31;99396.97;;;9.90;91.63
52185;BME280;38160;52.876;18.778;2022-09-27T03:10:03;99400.00;;;9.91;91.62
52185;BME280;38160;52.876;18.778;2022-09-27T03:12:36;99401.66;;;9.92;91.61
52185;BME280;38160;52.876;18.778;2022-09-27T03:15:08;99396.09;;;9.94;91.84
52185;BME280;38160;52.876;18.778;2022-09-27T03:17:59;99401.30;;;9.95;91.69
52185;BME280;38160;52.876;18.778;2022-09-27T03:20:48;99400.59;;;9.97;91.95
52185;BME280;38160;52.876;18.778;2022-09-27T03:23:27;99392.75;;;9.91;91.83
52185;BME280;38160;52.876;18.778;2022-09-27T03:25:59;99393.14;;;9.88;91.88
52185;BME280;38160;52.876;18.778;2022-09-27T03:28:31;99390.23;;;9.90;91.94
52185;BME280;38160;52.876;18.778;2022-09-27T03:31:02;99384.53;;;9.89;91.94
52185;BME280;38160;52.876;18.778;2022-09-27T03:33:48;99382.02;;;9.87;92.00
52185;BME280;38160;52.876;18.778;2022-09-27T03:36:20;99377.80;;;9.89;92.18
52185;BME280;38160;52.876;18.778;2022-09-27T03:38:52;99376.77;;;9.90;92.07
52185;BME280;38160;52.876;18.778;2022-09-27T03:41:24;99368.19;;;9.90;92.15
52185;BME280;38160;52.876;18.778;2022-09-27T03:43:56;99358.94;;;9.89;92.00
52185;BME280;38160;52.876;18.778;2022-09-27T03:46:29;99354.25;;;9.87;92.02
52185;BME280;38160;52.876;18.778;2022-09-27T03:49:01;99353.73;;;9.87;92.35
52185;BME280;38160;52.876;18.778;2022-09-27T03:51:33;99343.22;;;9.82;92.23
52185;BME280;38160;52.876;18.778;2022-09-27T03:54:04;99343.28;;;9.78;92.22
52185;BME280;38160;52.876;18.778;2022-09-27T03:56:36;99341.23;;;9.80;92.35
52185;BME280;38160;52.876;18.778;2022-09-27T03:59:08;99333.80;;;9.82;92.28
52185;BME280;38160;52.876;18.778;2022-09-27T04:01:41;99334.16;;;9.79;92.17
52185;BME280;38160;52.876;18.778;2022-09-27T04:04:16;99329.52;;;9.73;91.82
52185;BME280;38160;52.876;18.778;2022-09-27T04:06:48;99320.42;;;9.63;91.86
52185;BME280;38160;52.876;18.778;2022-09-27T04:09:20;99325.86;;;9.59;92.04
52185;BME280;38160;52.876;18.778;2022-09-27T04:12:03;99308.63;;;9.53;92.04
52185;BME280;38160;52.876;18.778;2022-09-27T04:14:36;99314.31;;;9.54;92.22
52185;BME280;38160;52.876;18.778;2022-09-27T04:17:13;99313.92;;;9.57;92.13
52185;BME280;38160;52.876;18.778;2022-09-27T04:19:49;99316.41;;;9.48;91.80
52185;BME280;38160;52.876;18.778;2022-09-27T04:22:21;99311.30;;;9.42;91.99
52185;BME280;38160;52.876;18.778;2022-09-27T04:24:58;99298.58;;;9.36;91.86
52185;BME280;38160;52.876;18.778;2022-09-27T04:27:29;99295.42;;;9.33;92.14
52185;BME280;38160;52.876;18.778;2022-09-27T04:30:08;99303.19;;;9.32;92.11
52185;BME280;38160;52.876;18.778;2022-09-27T04:36:05;99310.75;;;9.32;92.08
52185;BME280;38160;52.876;18.778;2022-09-27T04:39:06;99316.00;;;9.29;92.53
52185;BME280;38160;52.876;18.778;2022-09-27T04:41:41;99317.34;;;9.29;92.37
52185;BME280;38160;52.876;18.778;2022-09-27T04:44:13;99317.22;;;9.27;92.30
52185;BME280;38160;52.876;18.778;2022-09-27T04:49:38;99308.63;;;9.27;92.41
52185;BME280;38160;52.876;18.778;2022-09-27T04:52:10;99301.12;;;9.23;92.27
52185;BME280;38160;52.876;18.778;2022-09-27T04:54:42;99311.19;;;9.25;92.57
52185;BME280;38160;52.876;18.778;2022-09-27T05:00:25;99309.82;;;9.40;92.58
52185;BME280;38160;52.876;18.778;2022-09-27T05:03:00;99313.13;;;9.42;92.49
52185;BME280;38160;52.876;18.778;2022-09-27T05:05:43;99304.34;;;9.44;92.13
52185;BME280;38160;52.876;18.778;2022-09-27T05:08:15;99304.61;;;9.38;92.04
52185;BME280;38160;52.876;18.778;2022-09-27T05:10:53;99300.75;;;9.37;92.48
52185;BME280;38160;52.876;18.778;2022-09-27T05:13:25;99301.27;;;9.36;92.66
52185;BME280;38160;52.876;18.778;2022-09-27T05:16:02;99303.97;;;9.36;92.55
52185;BME280;38160;52.876;18.778;2022-09-27T05:18:38;99301.58;;;9.37;92.77
52185;BME280;38160;52.876;18.778;2022-09-27T05:21:29;99296.48;;;9.42;93.01
52185;BME280;38160;52.876;18.778;2022-09-27T05:24:01;99296.34;;;9.50;92.86
52185;BME280;38160;52.876;18.778;2022-09-27T05:33:22;99292.52;;;9.49;92.52
52185;BME280;38160;52.876;18.778;2022-09-27T05:36:19;99291.74;;;9.44;92.84
52185;BME280;38160;52.876;18.778;2022-09-27T05:38:56;99294.12;;;9.54;93.11
52185;BME280;38160;52.876;18.778;2022-09-27T05:41:33;99286.94;;;9.61;92.93
52185;BME280;38160;52.876;18.778;2022-09-27T05:44:08;99288.92;;;9.63;92.58
52185;BME280;38160;52.876;18.778;2022-09-27T05:46:42;99281.77;;;9.70;93.22
52185;BME280;38160;52.876;18.778;2022-09-27T05:49:13;99297.36;;;9.75;93.22
52185;BME280;38160;52.876;18.778;2022-09-27T05:51:45;99298.30;;;9.78;92.86
52185;BME280;38160;52.876;18.778;2022-09-27T05:54:17;99294.39;;;9.81;93.20
52185;BME280;38160;52.876;18.778;2022-09-27T05:56:54;99295.86;;;9.83;93.00
52185;BME280;38160;52.876;18.778;2022-09-27T05:59:37;99289.27;;;9.86;93.11
52185;BME280;38160;52.876;18.778;2022-09-27T06:02:26;99286.77;;;9.84;93.36
52185;BME280;38160;52.876;18.778;2022-09-27T06:05:16;99287.93;;;9.86;93.64
52185;BME280;38160;52.876;18.778;2022-09-27T06:08:07;99287.59;;;9.96;94.06
52185;BME280;38160;52.876;18.778;2022-09-27T06:10:41;99290.41;;;9.98;93.55
52185;BME280;38160;52.876;18.778;2022-09-27T06:13:14;99284.49;;;9.99;93.75
52185;BME280;38160;52.876;18.778;2022-09-27T06:15:47;99280.72;;;10.04;93.87
52185;BME280;38160;52.876;18.778;2022-09-27T06:24:37;99265.55;;;10.35;94.33
52185;BME280;38160;52.876;18.778;2022-09-27T06:27:15;99266.98;;;10.48;94.40
52185;BME280;38160;52.876;18.778;2022-09-27T06:29:56;99269.16;;;10.49;94.02
52185;BME280;38160;52.876;18.778;2022-09-27T06:32:56;99270.51;;;10.49;94.03
52185;BME280;38160;52.876;18.778;2022-09-27T06:35:31;99274.81;;;10.54;94.21
52185;BME280;38160;52.876;18.778;2022-09-27T06:38:06;99275.80;;;10.64;94.03
52185;BME280;38160;52.876;18.778;2022-09-27T06:40:44;99278.23;;;10.69;93.60
52185;BME280;38160;52.876;18.778;2022-09-27T06:43:27;99275.53;;;10.69;93.67
52185;BME280;38160;52.876;18.778;2022-09-27T06:46:19;99278.45;;;10.74;94.03
52185;BME280;38160;52.876;18.778;2022-09-27T06:49:05;99281.34;;;10.90;93.78
52185;BME280;38160;52.876;18.778;2022-09-27T06:51:54;99283.44;;;10.95;93.22
52185;BME280;38160;52.876;18.778;2022-09-27T06:54:54;99279.94;;;11.01;93.33
52185;BME280;38160;52.876;18.778;2022-09-27T06:57:37;99271.52;;;11.18;93.12
52185;BME280;38160;52.876;18.778;2022-09-27T07:03:58;99275.91;;;11.32;92.93
52185;BME280;38160;52.876;18.778;2022-09-27T07:06:50;99275.63;;;11.38;92.68
52185;BME280;38160;52.876;18.778;2022-09-27T07:12:37;99270.17;;;11.55;92.68
52185;BME280;38160;52.876;18.778;2022-09-27T07:16:08;99268.22;;;11.66;93.07
52185;BME280;38160;52.876;18.778;2022-09-27T07:19:14;99266.08;;;11.86;92.82
52185;BME280;38160;52.876;18.778;2022-09-27T07:22:41;99246.72;;;11.75;92.97
52185;BME280;38160;52.876;18.778;2022-09-27T07:34:20;99270.90;;;12.10;92.05
52185;BME280;38160;52.876;18.778;2022-09-27T07:36:59;99276.20;;;12.21;92.27
52185;BME280;38160;52.876;18.778;2022-09-27T07:39:57;99275.58;;;12.32;91.91
52185;BME280;38160;52.876;18.778;2022-09-27T07:42:45;99271.81;;;12.33;91.73
52185;BME280;38160;52.876;18.778;2022-09-27T07:45:18;99284.70;;;12.38;91.54
52185;BME280;38160;52.876;18.778;2022-09-27T07:48:19;99283.16;;;12.33;91.24
52185;BME280;38160;52.876;18.778;2022-09-27T07:51:21;99283.36;;;12.31;91.25
52185;BME280;38160;52.876;18.778;2022-09-27T07:54:01;99284.94;;;12.43;92.06
52185;BME280;38160;52.876;18.778;2022-09-27T07:56:49;99276.36;;;12.59;92.06
52185;BME280;38160;52.876;18.778;2022-09-27T07:59:25;99272.78;;;12.79;91.51
52185;BME280;38160;52.876;18.778;2022-09-27T08:02:14;99275.47;;;12.86;90.77
52185;BME280;38160;52.876;18.778;2022-09-27T08:04:45;99281.73;;;12.79;90.92
52185;BME280;38160;52.876;18.778;2022-09-27T08:07:17;99287.77;;;12.82;91.17
52185;BME280;38160;52.876;18.778;2022-09-27T08:10:09;99289.09;;;12.95;91.61
52185;BME280;38160;52.876;18.778;2022-09-27T08:12:47;99287.34;;;12.91;90.45
52185;BME280;38160;52.876;18.778;2022-09-27T08:15:30;99294.86;;;12.83;89.77
52185;BME280;38160;52.876;18.778;2022-09-27T08:21:04;99285.92;;;13.11;90.68
52185;BME280;38160;52.876;18.778;2022-09-27T08:23:38;99281.48;;;13.30;90.55
52185;BME280;38160;52.876;18.778;2022-09-27T08:26:41;99280.12;;;13.30;90.21
52185;BME280;38160;52.876;18.778;2022-09-27T08:39:38;99298.97;;;13.34;89.38
52185;BME280;38160;52.876;18.778;2022-09-27T08:42:49;99269.73;;;13.20;89.29
52185;BME280;38160;52.876;18.778;2022-09-27T08:45:32;99295.77;;;13.21;88.86
52185;BME280;38160;52.876;18.778;2022-09-27T08:48:43;99296.91;;;13.23;88.92
52185;BME280;38160;52.876;18.778;2022-09-27T08:51:22;99288.75;;;13.36;89.25
52185;BME280;38160;52.876;18.778;2022-09-27T08:54:28;99292.02;;;13.52;88.68
52185;BME280;38160;52.876;18.778;2022-09-27T08:57:09;99288.11;;;13.79;88.98
52185;BME280;38160;52.876;18.778;2022-09-27T09:00:01;99288.64;;;13.95;88.42
52185;BME280;38160;52.876;18.778;2022-09-27T09:02:36;99279.58;;;14.08;88.77
52185;BME280;38160;52.876;18.778;2022-09-27T09:05:24;99274.46;;;14.34;88.48
52185;BME280;38160;52.876;18.778;2022-09-27T09:08:41;99268.56;;;14.28;87.66
52185;BME280;38160;52.876;18.778;2022-09-27T09:14:52;99270.42;;;14.02;87.63
52185;BME280;38160;52.876;18.778;2022-09-27T09:18:09;99261.14;;;14.00;87.62
52185;BME280;38160;52.876;18.778;2022-09-27T09:26:47;99244.56;;;14.24;87.95
52185;BME280;38160;52.876;18.778;2022-09-27T09:32:27;99232.70;;;14.53;87.86
52185;BME280;38160;52.876;18.778;2022-09-27T09:35:16;99235.98;;;14.62;87.78
52185;BME280;38160;52.876;18.778;2022-09-27T09:38:01;99239.16;;;14.77;87.69
52185;BME280;38160;52.876;18.778;2022-09-27T09:40:48;99221.22;;;14.85;87.76
52185;BME280;38160;52.876;18.778;2022-09-27T09:43:41;99218.25;;;15.05;87.49
52185;BME280;38160;52.876;18.778;2022-09-27T09:49:42;99239.77;;;15.07;86.21
52185;BME280;38160;52.876;18.778;2022-09-27T09:52:20;99239.02;;;15.09;86.41
52185;BME280;38160;52.876;18.778;2022-09-27T10:01:49;99237.06;;;14.98;85.58
52185;BME280;38160;52.876;18.778;2022-09-27T10:07:35;99222.78;;;15.12;86.18
52185;BME280;38160;52.876;18.778;2022-09-27T10:13:51;99215.91;;;15.48;85.48
52185;BME280;38160;52.876;18.778;2022-09-27T10:20:07;99210.53;;;15.81;85.94
52185;BME280;38160;52.876;18.778;2022-09-27T10:26:40;99212.02;;;15.86;84.29
52185;BME280;38160;52.876;18.778;2022-09-27T10:29:36;99209.72;;;15.93;84.50
52185;BME280;38160;52.876;18.778;2022-09-27T10:31:51;99196.38;;;16.03;85.07
52185;BME280;38160;52.876;18.778;2022-09-27T10:34:40;99194.23;;;16.28;84.49
52185;BME280;38160;52.876;18.778;2022-09-27T10:37:15;99191.27;;;16.42;84.09
52185;BME280;38160;52.876;18.778;2022-09-27T10:39:59;99192.09;;;16.54;84.22
52185;BME280;38160;52.876;18.778;2022-09-27T10:42:36;99195.64;;;16.66;84.23
52185;BME280;38160;52.876;18.778;2022-09-27T10:45:31;99193.12;;;16.77;83.65
52185;BME280;38160;52.876;18.778;2022-09-27T10:48:17;99190.06;;;16.73;83.62
52185;BME280;38160;52.876;18.778;2022-09-27T10:51:05;99180.13;;;16.67;83.50
52185;BME280;38160;52.876;18.778;2022-09-27T10:53:46;99182.20;;;16.62;83.75
52185;BME280;38160;52.876;18.778;2022-09-27T10:56:34;99180.04;;;16.76;83.51
52185;BME280;38160;52.876;18.778;2022-09-27T10:59:18;99178.31;;;16.73;82.36
52185;BME280;38160;52.876;18.778;2022-09-27T11:01:54;99171.82;;;16.74;83.06
52185;BME280;38160;52.876;18.778;2022-09-27T11:04:33;99173.89;;;16.81;83.45
52185;BME280;38160;52.876;18.778;2022-09-27T11:07:17;99164.67;;;16.96;83.08
52185;BME280;38160;52.876;18.778;2022-09-27T11:10:19;99167.25;;;17.03;83.43
52185;BME280;38160;52.876;18.778;2022-09-27T11:13:14;99156.02;;;17.14;82.98
52185;BME280;38160;52.876;18.778;2022-09-27T11:16:02;99154.08;;;17.26;81.69
52185;BME280;38160;52.876;18.778;2022-09-27T11:28:27;99142.32;;;17.40;80.51
52185;BME280;38160;52.876;18.778;2022-09-27T11:34:31;99133.52;;;17.52;81.88
52185;BME280;38160;52.876;18.778;2022-09-27T11:37:30;99135.56;;;17.59;81.14
52185;BME280;38160;52.876;18.778;2022-09-27T12:05:14;99096.38;;;18.80;79.93
52185;BME280;38160;52.876;18.778;2022-09-27T12:11:18;99097.33;;;19.20;79.43
52185;BME280;38160;52.876;18.778;2022-09-27T12:23:05;99058.95;;;18.83;77.50
52185;BME280;38160;52.876;18.778;2022-09-27T12:25:51;99081.77;;;18.96;75.84
52185;BME280;38160;52.876;18.778;2022-09-27T12:31:28;99077.26;;;19.09;76.09
52185;BME280;38160;52.876;18.778;2022-09-27T12:43:17;99054.11;;;19.17;77.36
52185;BME280;38160;52.876;18.778;2022-09-27T12:45:58;99043.20;;;19.22;77.20
52185;BME280;38160;52.876;18.778;2022-09-27T12:49:13;99032.37;;;19.35;77.53
52185;BME280;38160;52.876;18.778;2022-09-27T12:51:55;99034.31;;;19.37;76.97
52185;BME280;38160;52.876;18.778;2022-09-27T12:54:35;99028.51;;;19.31;77.31
52185;BME280;38160;52.876;18.778;2022-09-27T12:57:32;99029.28;;;19.24;76.74
52185;BME280;38160;52.876;18.778;2022-09-27T13:00:19;99034.20;;;19.24;76.77
52185;BME280;38160;52.876;18.778;2022-09-27T13:06:20;99034.23;;;19.29;76.76
52185;BME280;38160;52.876;18.778;2022-09-27T13:09:06;99024.11;;;19.30;76.32
52185;BME280;38160;52.876;18.778;2022-09-27T13:14:53;99022.61;;;19.14;75.71
52185;BME280;38160;52.876;18.778;2022-09-27T13:20:44;99013.19;;;18.98;76.09
52185;BME280;38160;52.876;18.778;2022-09-27T13:26:41;98998.61;;;18.89;75.11
52185;BME280;38160;52.876;18.778;2022-09-27T13:29:24;98999.55;;;18.75;75.43
52185;BME280;38160;52.876;18.778;2022-09-27T13:32:00;98995.42;;;18.48;74.40
52185;BME280;38160;52.876;18.778;2022-09-27T13:40:22;98995.95;;;18.21;75.35
52185;BME280;38160;52.876;18.778;2022-09-27T13:43:16;98976.16;;;18.11;75.36
52185;BME280;38160;52.876;18.778;2022-09-27T13:46:02;98981.17;;;18.19;76.44
52185;BME280;38160;52.876;18.778;2022-09-27T13:51:55;98978.20;;;18.21;74.99
52185;BME280;38160;52.876;18.778;2022-09-27T13:55:44;98976.82;;;17.79;74.55
52185;BME280;38160;52.876;18.778;2022-09-27T14:01:46;98979.26;;;17.22;74.56
52185;BME280;38160;52.876;18.778;2022-09-27T14:07:56;98967.98;;;17.16;75.14
52185;BME280;38160;52.876;18.778;2022-09-27T14:10:30;98972.55;;;17.10;74.98
52185;BME280;38160;52.876;18.778;2022-09-27T14:13:05;98969.84;;;16.96;74.72
52185;BME280;38160;52.876;18.778;2022-09-27T14:15:38;98973.70;;;16.83;74.84
52185;BME280;38160;52.876;18.778;2022-09-27T14:18:11;98979.67;;;16.68;74.95
52185;BME280;38160;52.876;18.778;2022-09-27T14:20:47;98979.59;;;16.63;75.43
52185;BME280;38160;52.876;18.778;2022-09-27T14:23:26;98981.38;;;16.72;75.39
52185;BME280;38160;52.876;18.778;2022-09-27T14:26:00;98975.02;;;16.81;75.15
52185;BME280;38160;52.876;18.778;2022-09-27T14:28:39;98970.82;;;16.90;75.32
52185;BME280;38160;52.876;18.778;2022-09-27T14:34:03;98973.34;;;16.94;75.16
52185;BME280;38160;52.876;18.778;2022-09-27T14:36:39;98973.92;;;16.96;75.29
52185;BME280;38160;52.876;18.778;2022-09-27T14:39:34;98981.86;;;16.98;75.19
52185;BME280;38160;52.876;18.778;2022-09-27T14:42:21;98985.42;;;16.84;74.70
52185;BME280;38160;52.876;18.778;2022-09-27T14:48:15;98982.81;;;16.60;74.96
52185;BME280;38160;52.876;18.778;2022-09-27T14:50:59;98976.53;;;16.45;75.17
52185;BME280;38160;52.876;18.778;2022-09-27T14:53:46;98974.46;;;16.36;75.26
52185;BME280;38160;52.876;18.778;2022-09-27T14:56:36;98985.73;;;16.27;75.36
52185;BME280;38160;52.876;18.778;2022-09-27T14:59:18;98977.11;;;16.19;75.43
52185;BME280;38160;52.876;18.778;2022-09-27T15:01:53;98978.80;;;16.08;75.77
52185;BME280;38160;52.876;18.778;2022-09-27T15:04:31;98980.06;;;16.03;75.55
52185;BME280;38160;52.876;18.778;2022-09-27T15:07:06;98975.27;;;15.96;75.66
52185;BME280;38160;52.876;18.778;2022-09-27T15:09:46;98975.17;;;15.91;75.81
52185;BME280;38160;52.876;18.778;2022-09-27T15:12:40;98973.41;;;15.84;75.84
52185;BME280;38160;52.876;18.778;2022-09-27T15:15:18;98970.81;;;15.78;75.84
52185;BME280;38160;52.876;18.778;2022-09-27T15:25:31;98978.02;;;15.60;76.26
52185;BME280;38160;52.876;18.778;2022-09-27T15:28:31;98987.37;;;15.53;76.38
52185;BME280;38160;52.876;18.778;2022-09-27T15:31:27;98989.20;;;15.38;76.68
52185;BME280;38160;52.876;18.778;2022-09-27T15:34:47;98988.13;;;15.27;76.71
52185;BME280;38160;52.876;18.778;2022-09-27T15:41:58;98998.57;;;15.09;77.40
52185;BME280;38160;52.876;18.778;2022-09-27T15:47:52;98996.61;;;14.95;77.65
52185;BME280;38160;52.876;18.778;2022-09-27T16:43:03;99010.64;;;14.32;77.72
52185;BME280;38160;52.876;18.778;2022-09-27T16:49:09;99032.03;;;14.31;78.12
52185;BME280;38160;52.876;18.778;2022-09-27T16:51:50;99037.92;;;14.28;78.33
52185;BME280;38160;52.876;18.778;2022-09-27T16:58:07;99041.54;;;14.21;78.44
52185;BME280;38160;52.876;18.778;2022-09-27T17:00:39;99041.55;;;14.12;78.86
52185;BME280;38160;52.876;18.778;2022-09-27T17:03:15;99049.02;;;14.08;78.97
52185;BME280;38160;52.876;18.778;2022-09-27T17:05:51;99048.91;;;14.05;79.37
52185;BME280;38160;52.876;18.778;2022-09-27T17:08:32;99041.45;;;14.00;79.70
52185;BME280;38160;52.876;18.778;2022-09-27T17:11:07;99035.50;;;13.92;80.08
52185;BME280;38160;52.876;18.778;2022-09-27T17:13:46;99048.77;;;13.91;80.46
52185;BME280;38160;52.876;18.778;2022-09-27T17:19:56;99033.53;;;13.80;80.99
52185;BME280;38160;52.876;18.778;2022-09-27T17:22:34;99032.57;;;13.75;81.35
52185;BME280;38160;52.876;18.778;2022-09-27T17:25:05;99032.39;;;13.70;81.50
52185;BME280;38160;52.876;18.778;2022-09-27T17:27:38;99036.39;;;13.67;81.73
52185;BME280;38160;52.876;18.778;2022-09-27T17:30:21;99039.09;;;13.67;82.02
52185;BME280;38160;52.876;18.778;2022-09-27T17:42:53;99054.45;;;13.55;83.05
52185;BME280;38160;52.876;18.778;2022-09-27T17:45:30;99060.75;;;13.49;83.36
52185;BME280;38160;52.876;18.778;2022-09-27T17:48:26;99057.28;;;13.41;83.39
52185;BME280;38160;52.876;18.778;2022-09-27T17:54:31;99054.30;;;13.34;83.92
52185;BME280;38160;52.876;18.778;2022-09-27T17:57:07;99043.68;;;13.32;84.29
52185;BME280;38160;52.876;18.778;2022-09-27T17:59:40;99052.12;;;13.33;84.56
52185;BME280;38160;52.876;18.778;2022-09-27T18:02:18;99051.06;;;13.34;84.56
52185;BME280;38160;52.876;18.778;2022-09-27T18:04:47;99045.36;;;13.33;84.72
52185;BME280;38160;52.876;18.778;2022-09-27T18:07:19;99035.80;;;13.31;84.85
52185;BME280;38160;52.876;18.778;2022-09-27T18:09:51;99042.86;;;13.32;84.91
52185;BME280;38160;52.876;18.778;2022-09-27T18:12:23;99054.77;;;13.31;85.27
52185;BME280;38160;52.876;18.778;2022-09-27T18:15:02;99063.39;;;13.30;85.46
52185;BME280;38160;52.876;18.778;2022-09-27T18:17:33;99069.66;;;13.31;85.38
52185;BME280;38160;52.876;18.778;2022-09-27T18:20:06;99068.62;;;13.25;85.68
52185;BME280;38160;52.876;18.778;2022-09-27T18:22:38;99069.97;;;13.25;85.88
52185;BME280;38160;52.876;18.778;2022-09-27T18:25:10;99070.84;;;13.19;85.74
52185;BME280;38160;52.876;18.778;2022-09-27T18:27:48;99078.86;;;13.07;85.90
52185;BME280;38160;52.876;18.778;2022-09-27T18:30:24;99095.06;;;12.98;86.02
52185;BME280;38160;52.876;18.778;2022-09-27T18:32:58;99096.46;;;12.91;86.30
52185;BME280;38160;52.876;18.778;2022-09-27T18:35:36;99099.38;;;12.90;86.56
52185;BME280;38160;52.876;18.778;2022-09-27T18:38:17;99104.09;;;12.85;86.25
52185;BME280;38160;52.876;18.778;2022-09-27T18:40:48;99098.35;;;12.84;86.30
52185;BME280;38160;52.876;18.778;2022-09-27T18:43:23;99102.16;;;12.76;86.07
52185;BME280;38160;52.876;18.778;2022-09-27T18:46:00;99101.45;;;12.72;86.33
52185;BME280;38160;52.876;18.778;2022-09-27T18:48:37;99100.75;;;12.67;86.28
52185;BME280;38160;52.876;18.778;2022-09-27T18:51:11;99105.75;;;12.64;86.52
52185;BME280;38160;52.876;18.778;2022-09-27T18:53:45;99109.11;;;12.59;86.58
52185;BME280;38160;52.876;18.778;2022-09-27T18:56:18;99114.55;;;12.52;87.09
52185;BME280;38160;52.876;18.778;2022-09-27T18:58:50;99115.81;;;12.50;86.92
52185;BME280;38160;52.876;18.778;2022-09-27T19:01:22;99123.52;;;12.46;87.00
52185;BME280;38160;52.876;18.778;2022-09-27T19:13:36;99107.72;;;12.43;87.37
52185;BME280;38160;52.876;18.778;2022-09-27T19:16:10;99098.16;;;12.41;87.34
52185;BME280;38160;52.876;18.778;2022-09-27T19:18:42;99093.34;;;12.43;87.20
52185;BME280;38160;52.876;18.778;2022-09-27T19:21:19;99085.46;;;12.41;87.45
52185;BME280;38160;52.876;18.778;2022-09-27T19:24:01;99087.02;;;12.39;87.53
52185;BME280;38160;52.876;18.778;2022-09-27T19:26:32;99086.22;;;12.32;87.87
52185;BME280;38160;52.876;18.778;2022-09-27T19:29:04;99088.84;;;12.30;87.85
52185;BME280;38160;52.876;18.778;2022-09-27T19:31:36;99089.57;;;12.28;88.01
52185;BME280;38160;52.876;18.778;2022-09-27T19:34:08;99081.02;;;12.31;88.08